< < Back
Terminal Aerodrome Forecast


Current Version              Previous Versions:   1  2  3  4  5  6  7  8  9  

Terminal Aerodrome Forecast

291
FTUS44 KMRX 291730
TAFTYS
TAF
KTYS 291730Z 2918/3018 29008KT P6SM SCT060
     FM300100 36003KT P6SM SKC
     FM301400 04004KT P6SM SCT040=

Latest METAR

502
SAUS80 KWBC 300700 RRB
MTRTYS
METAR KTYS 300653Z 36005KT 10SM CLR 15/12 A3009 RMK AO2 SLP181
T01500122


USA.gov is the U.S. government's official web portal to all federal, state and local government web resources and services.